sensor_id;sensor_type;location;lat;lon;timestamp;temperature;humidity
37222;DHT22;23119;51.842;-2.230;2023-05-21T00:02:16;12.20;99.90
37222;DHT22;23119;51.842;-2.230;2023-05-21T00:04:46;12.20;99.90
37222;DHT22;23119;51.842;-2.230;2023-05-21T00:07:13;12.20;99.90
37222;DHT22;23119;51.842;-2.230;2023-05-21T00:09:39;12.20;99.90
37222;DHT22;23119;51.842;-2.230;2023-05-21T00:12:06;12.10;99.90
37222;DHT22;23119;51.842;-2.230;2023-05-21T00:14:33;12.10;99.90
37222;DHT22;23119;51.842;-2.230;2023-05-21T00:16:59;12.00;99.90
37222;DHT22;23119;51.842;-2.230;2023-05-21T00:19:25;11.90;99.90
37222;DHT22;23119;51.842;-2.230;2023-05-21T00:21:51;11.90;99.90
37222;DHT22;23119;51.842;-2.230;2023-05-21T00:24:17;11.80;99.90
37222;DHT22;23119;51.842;-2.230;2023-05-21T00:26:43;11.80;99.90
37222;DHT22;23119;51.842;-2.230;2023-05-21T00:29:09;11.70;99.90
37222;DHT22;23119;51.842;-2.230;2023-05-21T00:31:35;11.70;99.90
37222;DHT22;23119;51.842;-2.230;2023-05-21T00:34:00;11.60;99.90
37222;DHT22;23119;51.842;-2.230;2023-05-21T00:36:26;11.60;99.90
37222;DHT22;23119;51.842;-2.230;2023-05-21T00:38:52;11.50;99.90
37222;DHT22;23119;51.842;-2.230;2023-05-21T00:41:20;11.50;99.90
37222;DHT22;23119;51.842;-2.230;2023-05-21T00:43:47;11.30;99.90
37222;DHT22;23119;51.842;-2.230;2023-05-21T00:46:14;11.30;99.90
37222;DHT22;23119;51.842;-2.230;2023-05-21T00:48:43;11.30;99.90
37222;DHT22;23119;51.842;-2.230;2023-05-21T00:51:10;11.20;99.90
37222;DHT22;23119;51.842;-2.230;2023-05-21T00:53:37;11.20;99.90
37222;DHT22;23119;51.842;-2.230;2023-05-21T00:56:04;11.10;99.90
37222;DHT22;23119;51.842;-2.230;2023-05-21T00:58:31;11.10;99.90
37222;DHT22;23119;51.842;-2.230;2023-05-21T01:01:00;11.10;99.90
37222;DHT22;23119;51.842;-2.230;2023-05-21T01:03:31;11.00;99.90
37222;DHT22;23119;51.842;-2.230;2023-05-21T01:06:07;11.00;99.90
37222;DHT22;23119;51.842;-2.230;2023-05-21T01:08:34;11.00;99.90
37222;DHT22;23119;51.842;-2.230;2023-05-21T01:11:02;11.00;99.90
37222;DHT22;23119;51.842;-2.230;2023-05-21T01:13:30;11.00;99.90
37222;DHT22;23119;51.842;-2.230;2023-05-21T01:15:57;10.90;99.90
37222;DHT22;23119;51.842;-2.230;2023-05-21T01:18:23;10.80;99.90
37222;DHT22;23119;51.842;-2.230;2023-05-21T01:20:53;10.70;99.90
37222;DHT22;23119;51.842;-2.230;2023-05-21T01:23:20;10.60;99.90
37222;DHT22;23119;51.842;-2.230;2023-05-21T01:25:46;10.50;99.90
37222;DHT22;23119;51.842;-2.230;2023-05-21T01:28:12;10.50;99.90
37222;DHT22;23119;51.842;-2.230;2023-05-21T01:30:40;10.50;99.90
37222;DHT22;23119;51.842;-2.230;2023-05-21T01:39:01;10.30;99.90
37222;DHT22;23119;51.842;-2.230;2023-05-21T01:41:33;10.30;99.90
37222;DHT22;23119;51.842;-2.230;2023-05-21T01:44:02;10.30;99.90
37222;DHT22;23119;51.842;-2.230;2023-05-21T01:46:33;10.30;99.90
37222;DHT22;23119;51.842;-2.230;2023-05-21T01:49:00;10.30;99.90
37222;DHT22;23119;51.842;-2.230;2023-05-21T01:51:29;10.30;99.90
37222;DHT22;23119;51.842;-2.230;2023-05-21T01:53:55;10.30;99.90
37222;DHT22;23119;51.842;-2.230;2023-05-21T01:56:21;10.20;99.90
37222;DHT22;23119;51.842;-2.230;2023-05-21T01:58:50;10.10;99.90
37222;DHT22;23119;51.842;-2.230;2023-05-21T02:01:18;10.10;99.90
37222;DHT22;23119;51.842;-2.230;2023-05-21T02:03:44;10.10;99.90
37222;DHT22;23119;51.842;-2.230;2023-05-21T02:06:10;10.00;99.90
37222;DHT22;23119;51.842;-2.230;2023-05-21T02:08:36;10.10;99.90
37222;DHT22;23119;51.842;-2.230;2023-05-21T02:11:02;10.00;99.90
37222;DHT22;23119;51.842;-2.230;2023-05-21T02:13:28;10.00;99.90
37222;DHT22;23119;51.842;-2.230;2023-05-21T02:15:54;9.90;99.90
37222;DHT22;23119;51.842;-2.230;2023-05-21T02:18:20;9.90;99.90
37222;DHT22;23119;51.842;-2.230;2023-05-21T02:20:46;9.90;99.90
37222;DHT22;23119;51.842;-2.230;2023-05-21T02:23:12;9.80;99.90
37222;DHT22;23119;51.842;-2.230;2023-05-21T02:25:38;9.90;99.90
37222;DHT22;23119;51.842;-2.230;2023-05-21T02:28:03;9.90;99.90
37222;DHT22;23119;51.842;-2.230;2023-05-21T02:30:29;9.90;99.90
37222;DHT22;23119;51.842;-2.230;2023-05-21T02:32:55;9.90;99.90
37222;DHT22;23119;51.842;-2.230;2023-05-21T02:35:23;9.90;99.90
37222;DHT22;23119;51.842;-2.230;2023-05-21T02:37:49;9.90;99.90
37222;DHT22;23119;51.842;-2.230;2023-05-21T02:40:15;9.90;99.90
37222;DHT22;23119;51.842;-2.230;2023-05-21T02:42:43;9.90;99.90
37222;DHT22;23119;51.842;-2.230;2023-05-21T02:45:10;9.80;99.90
37222;DHT22;23119;51.842;-2.230;2023-05-21T02:47:36;9.80;99.90
37222;DHT22;23119;51.842;-2.230;2023-05-21T02:50:06;9.70;99.90
37222;DHT22;23119;51.842;-2.230;2023-05-21T02:52:32;9.70;99.90
37222;DHT22;23119;51.842;-2.230;2023-05-21T02:54:58;9.60;99.90
37222;DHT22;23119;51.842;-2.230;2023-05-21T02:57:24;9.60;99.90
37222;DHT22;23119;51.842;-2.230;2023-05-21T02:59:50;9.50;99.90
37222;DHT22;23119;51.842;-2.230;2023-05-21T03:02:16;9.40;99.90
37222;DHT22;23119;51.842;-2.230;2023-05-21T03:04:41;9.40;99.90
37222;DHT22;23119;51.842;-2.230;2023-05-21T03:07:14;9.30;99.90
37222;DHT22;23119;51.842;-2.230;2023-05-21T03:09:40;9.30;99.90
37222;DHT22;23119;51.842;-2.230;2023-05-21T03:12:07;9.20;99.90
37222;DHT22;23119;51.842;-2.230;2023-05-21T03:14:33;9.10;99.90
37222;DHT22;23119;51.842;-2.230;2023-05-21T03:17:02;9.10;99.90
37222;DHT22;23119;51.842;-2.230;2023-05-21T03:19:33;9.00;99.90
37222;DHT22;23119;51.842;-2.230;2023-05-21T03:22:03;9.00;99.90
37222;DHT22;23119;51.842;-2.230;2023-05-21T03:24:29;9.00;99.90
37222;DHT22;23119;51.842;-2.230;2023-05-21T03:26:56;9.00;99.90
37222;DHT22;23119;51.842;-2.230;2023-05-21T03:29:25;9.00;99.90
37222;DHT22;23119;51.842;-2.230;2023-05-21T03:31:54;9.00;99.90
37222;DHT22;23119;51.842;-2.230;2023-05-21T03:34:22;9.00;99.90
37222;DHT22;23119;51.842;-2.230;2023-05-21T03:36:48;8.70;99.90
37222;DHT22;23119;51.842;-2.230;2023-05-21T03:39:14;9.00;99.90
37222;DHT22;23119;51.842;-2.230;2023-05-21T03:41:40;8.90;99.90
37222;DHT22;23119;51.842;-2.230;2023-05-21T03:44:11;8.90;99.90
37222;DHT22;23119;51.842;-2.230;2023-05-21T03:46:37;8.90;99.90
37222;DHT22;23119;51.842;-2.230;2023-05-21T03:49:02;8.80;99.90
37222;DHT22;23119;51.842;-2.230;2023-05-21T03:51:28;8.80;99.90
37222;DHT22;23119;51.842;-2.230;2023-05-21T03:53:59;8.80;99.90
37222;DHT22;23119;51.842;-2.230;2023-05-21T03:56:25;8.70;99.90
37222;DHT22;23119;51.842;-2.230;2023-05-21T03:58:53;8.70;99.90
37222;DHT22;23119;51.842;-2.230;2023-05-21T04:01:19;8.70;99.90
37222;DHT22;23119;51.842;-2.230;2023-05-21T04:03:45;8.70;99.90
37222;DHT22;23119;51.842;-2.230;2023-05-21T04:06:11;8.70;99.90
37222;DHT22;23119;51.842;-2.230;2023-05-21T04:08:36;8.70;99.90
37222;DHT22;23119;51.842;-2.230;2023-05-21T04:11:02;8.80;99.90
37222;DHT22;23119;51.842;-2.230;2023-05-21T04:13:28;8.90;99.90
37222;DHT22;23119;51.842;-2.230;2023-05-21T04:15:54;8.90;99.90
37222;DHT22;23119;51.842;-2.230;2023-05-21T04:18:20;9.00;99.90
37222;DHT22;23119;51.842;-2.230;2023-05-21T04:20:48;9.10;99.90
37222;DHT22;23119;51.842;-2.230;2023-05-21T04:23:14;9.10;99.90
37222;DHT22;23119;51.842;-2.230;2023-05-21T04:25:40;9.10;99.90
37222;DHT22;23119;51.842;-2.230;2023-05-21T04:28:08;9.10;99.90
37222;DHT22;23119;51.842;-2.230;2023-05-21T04:30:34;9.10;99.90
37222;DHT22;23119;51.842;-2.230;2023-05-21T04:33:01;9.20;99.90
37222;DHT22;23119;51.842;-2.230;2023-05-21T04:35:27;9.30;99.90
37222;DHT22;23119;51.842;-2.230;2023-05-21T04:37:52;9.50;99.90
37222;DHT22;23119;51.842;-2.230;2023-05-21T04:40:20;10.10;99.90
37222;DHT22;23119;51.842;-2.230;2023-05-21T04:42:49;10.90;99.90
37222;DHT22;23119;51.842;-2.230;2023-05-21T04:45:18;11.80;99.90
37222;DHT22;23119;51.842;-2.230;2023-05-21T04:47:48;12.70;99.90
37222;DHT22;23119;51.842;-2.230;2023-05-21T04:50:17;13.60;99.90
37222;DHT22;23119;51.842;-2.230;2023-05-21T04:52:43;14.40;99.90
37222;DHT22;23119;51.842;-2.230;2023-05-21T04:55:09;15.30;99.90
37222;DHT22;23119;51.842;-2.230;2023-05-21T04:57:36;16.20;99.90
37222;DHT22;23119;51.842;-2.230;2023-05-21T05:00:02;16.90;98.80
37222;DHT22;23119;51.842;-2.230;2023-05-21T05:02:30;17.60;96.90
37222;DHT22;23119;51.842;-2.230;2023-05-21T05:04:58;18.20;96.10
37222;DHT22;23119;51.842;-2.230;2023-05-21T05:07:24;18.90;95.50
37222;DHT22;23119;51.842;-2.230;2023-05-21T05:09:54;19.60;94.60
37222;DHT22;23119;51.842;-2.230;2023-05-21T05:12:20;20.50;93.30
37222;DHT22;23119;51.842;-2.230;2023-05-21T05:14:46;21.20;92.30
37222;DHT22;23119;51.842;-2.230;2023-05-21T05:17:14;21.90;91.50
37222;DHT22;23119;51.842;-2.230;2023-05-21T05:19:43;22.70;90.60
37222;DHT22;23119;51.842;-2.230;2023-05-21T05:22:09;23.30;88.70
37222;DHT22;23119;51.842;-2.230;2023-05-21T05:24:37;23.90;86.60
37222;DHT22;23119;51.842;-2.230;2023-05-21T05:27:05;24.30;84.10
37222;DHT22;23119;51.842;-2.230;2023-05-21T05:29:33;24.40;80.50
37222;DHT22;23119;51.842;-2.230;2023-05-21T05:32:02;24.40;78.80
37222;DHT22;23119;51.842;-2.230;2023-05-21T05:34:28;24.50;79.10
37222;DHT22;23119;51.842;-2.230;2023-05-21T05:36:59;25.20;79.50
37222;DHT22;23119;51.842;-2.230;2023-05-21T05:39:27;25.40;78.50
37222;DHT22;23119;51.842;-2.230;2023-05-21T05:41:52;26.40;76.90
37222;DHT22;23119;51.842;-2.230;2023-05-21T05:44:18;26.70;72.90
37222;DHT22;23119;51.842;-2.230;2023-05-21T05:46:44;27.20;75.00
37222;DHT22;23119;51.842;-2.230;2023-05-21T05:49:10;27.60;74.20
37222;DHT22;23119;51.842;-2.230;2023-05-21T05:51:35;27.90;72.90
37222;DHT22;23119;51.842;-2.230;2023-05-21T05:54:01;28.20;71.80
37222;DHT22;23119;51.842;-2.230;2023-05-21T05:56:27;28.30;71.00
37222;DHT22;23119;51.842;-2.230;2023-05-21T05:58:56;28.40;71.00
37222;DHT22;23119;51.842;-2.230;2023-05-21T06:01:22;29.30;70.40
37222;DHT22;23119;51.842;-2.230;2023-05-21T06:03:49;29.90;70.00
37222;DHT22;23119;51.842;-2.230;2023-05-21T06:06:15;30.50;69.60
37222;DHT22;23119;51.842;-2.230;2023-05-21T06:08:41;31.00;68.90
37222;DHT22;23119;51.842;-2.230;2023-05-21T06:11:07;31.70;68.30
37222;DHT22;23119;51.842;-2.230;2023-05-21T06:13:36;32.00;66.40
37222;DHT22;23119;51.842;-2.230;2023-05-21T06:16:02;32.00;64.80
37222;DHT22;23119;51.842;-2.230;2023-05-21T06:18:28;31.80;65.00
37222;DHT22;23119;51.842;-2.230;2023-05-21T06:20:54;32.20;65.10
37222;DHT22;23119;51.842;-2.230;2023-05-21T06:23:20;32.80;64.90
37222;DHT22;23119;51.842;-2.230;2023-05-21T06:25:48;32.60;61.30
37222;DHT22;23119;51.842;-2.230;2023-05-21T06:28:14;32.50;62.80
37222;DHT22;23119;51.842;-2.230;2023-05-21T06:30:40;32.40;62.70
37222;DHT22;23119;51.842;-2.230;2023-05-21T06:33:05;32.10;60.40
37222;DHT22;23119;51.842;-2.230;2023-05-21T06:35:31;32.10;62.40
37222;DHT22;23119;51.842;-2.230;2023-05-21T06:37:59;32.50;61.30
37222;DHT22;23119;51.842;-2.230;2023-05-21T06:40:30;32.50;61.40
37222;DHT22;23119;51.842;-2.230;2023-05-21T06:42:56;32.90;60.70
37222;DHT22;23119;51.842;-2.230;2023-05-21T06:45:24;32.50;60.50
37222;DHT22;23119;51.842;-2.230;2023-05-21T06:47:49;33.10;60.40
37222;DHT22;23119;51.842;-2.230;2023-05-21T06:50:15;32.80;59.30
37222;DHT22;23119;51.842;-2.230;2023-05-21T06:52:41;33.10;60.40
37222;DHT22;23119;51.842;-2.230;2023-05-21T06:55:07;33.50;60.00
37222;DHT22;23119;51.842;-2.230;2023-05-21T06:57:33;33.90;59.80
37222;DHT22;23119;51.842;-2.230;2023-05-21T06:59:59;34.40;59.60
37222;DHT22;23119;51.842;-2.230;2023-05-21T07:02:25;34.70;58.00
37222;DHT22;23119;51.842;-2.230;2023-05-21T07:04:51;34.30;58.50
37222;DHT22;23119;51.842;-2.230;2023-05-21T07:07:18;34.50;58.30
37222;DHT22;23119;51.842;-2.230;2023-05-21T07:09:43;34.10;58.10
37222;DHT22;23119;51.842;-2.230;2023-05-21T07:12:09;34.50;58.10
37222;DHT22;23119;51.842;-2.230;2023-05-21T07:14:37;35.00;58.30
37222;DHT22;23119;51.842;-2.230;2023-05-21T07:17:03;35.30;57.30
37222;DHT22;23119;51.842;-2.230;2023-05-21T07:19:31;34.50;57.10
37222;DHT22;23119;51.842;-2.230;2023-05-21T07:21:57;34.90;57.30
37222;DHT22;23119;51.842;-2.230;2023-05-21T07:24:23;35.40;56.80
37222;DHT22;23119;51.842;-2.230;2023-05-21T07:26:48;35.50;57.20
37222;DHT22;23119;51.842;-2.230;2023-05-21T07:29:14;36.10;57.10
37222;DHT22;23119;51.842;-2.230;2023-05-21T07:31:41;36.30;56.50
37222;DHT22;23119;51.842;-2.230;2023-05-21T07:34:07;36.90;56.50
37222;DHT22;23119;51.842;-2.230;2023-05-21T07:36:32;37.00;54.90
37222;DHT22;23119;51.842;-2.230;2023-05-21T07:38:58;36.20;55.20
37222;DHT22;23119;51.842;-2.230;2023-05-21T07:41:24;35.80;55.00
37222;DHT22;23119;51.842;-2.230;2023-05-21T07:43:50;36.00;55.20
37222;DHT22;23119;51.842;-2.230;2023-05-21T07:46:16;36.20;55.20
37222;DHT22;23119;51.842;-2.230;2023-05-21T07:48:42;36.40;55.30
37222;DHT22;23119;51.842;-2.230;2023-05-21T07:51:08;34.90;54.90
37222;DHT22;23119;51.842;-2.230;2023-05-21T07:53:36;34.50;55.50
37222;DHT22;23119;51.842;-2.230;2023-05-21T07:56:04;33.50;55.80
37222;DHT22;23119;51.842;-2.230;2023-05-21T07:58:29;33.50;56.50
37222;DHT22;23119;51.842;-2.230;2023-05-21T08:00:55;33.40;56.80
37222;DHT22;23119;51.842;-2.230;2023-05-21T08:03:21;33.80;56.80
37222;DHT22;23119;51.842;-2.230;2023-05-21T08:05:47;34.30;56.80
37222;DHT22;23119;51.842;-2.230;2023-05-21T08:08:19;34.30;55.90
37222;DHT22;23119;51.842;-2.230;2023-05-21T08:10:48;34.20;56.50
37222;DHT22;23119;51.842;-2.230;2023-05-21T08:13:16;34.10;56.80
37222;DHT22;23119;51.842;-2.230;2023-05-21T08:15:51;33.50;57.00
37222;DHT22;23119;51.842;-2.230;2023-05-21T08:18:20;32.70;57.10
37222;DHT22;23119;51.842;-2.230;2023-05-21T08:20:50;31.80;57.90
37222;DHT22;23119;51.842;-2.230;2023-05-21T08:23:16;31.60;58.70
37222;DHT22;23119;51.842;-2.230;2023-05-21T08:25:41;31.40;59.50
37222;DHT22;23119;51.842;-2.230;2023-05-21T08:28:12;31.40;60.30
37222;DHT22;23119;51.842;-2.230;2023-05-21T08:30:38;31.20;60.40
37222;DHT22;23119;51.842;-2.230;2023-05-21T08:33:06;31.10;60.80
37222;DHT22;23119;51.842;-2.230;2023-05-21T08:35:31;30.50;61.20
37222;DHT22;23119;51.842;-2.230;2023-05-21T08:37:57;30.10;61.60
37222;DHT22;23119;51.842;-2.230;2023-05-21T08:40:23;29.60;62.00
37222;DHT22;23119;51.842;-2.230;2023-05-21T08:42:50;29.20;62.70
37222;DHT22;23119;51.842;-2.230;2023-05-21T08:45:22;28.90;63.40
37222;DHT22;23119;51.842;-2.230;2023-05-21T08:47:54;28.30;63.80
37222;DHT22;23119;51.842;-2.230;2023-05-21T08:50:24;28.10;64.90
37222;DHT22;23119;51.842;-2.230;2023-05-21T08:52:50;27.40;65.20
37222;DHT22;23119;51.842;-2.230;2023-05-21T08:55:17;27.00;65.70
37222;DHT22;23119;51.842;-2.230;2023-05-21T08:57:43;26.90;66.30
37222;DHT22;23119;51.842;-2.230;2023-05-21T09:00:12;26.30;66.90
37222;DHT22;23119;51.842;-2.230;2023-05-21T09:02:41;25.60;68.10
37222;DHT22;23119;51.842;-2.230;2023-05-21T09:05:11;25.00;69.50
37222;DHT22;23119;51.842;-2.230;2023-05-21T09:10:39;24.50;71.80
37222;DHT22;23119;51.842;-2.230;2023-05-21T09:13:08;24.20;71.20
37222;DHT22;23119;51.842;-2.230;2023-05-21T09:15:34;24.10;72.10
37222;DHT22;23119;51.842;-2.230;2023-05-21T09:18:04;24.20;71.90
37222;DHT22;23119;51.842;-2.230;2023-05-21T09:20:30;23.80;72.40
37222;DHT22;23119;51.842;-2.230;2023-05-21T09:22:55;23.80;72.50
37222;DHT22;23119;51.842;-2.230;2023-05-21T09:25:27;23.40;72.70
37222;DHT22;23119;51.842;-2.230;2023-05-21T09:27:55;23.10;73.20
37222;DHT22;23119;51.842;-2.230;2023-05-21T09:30:21;23.20;74.00
37222;DHT22;23119;51.842;-2.230;2023-05-21T09:32:57;23.30;74.10
37222;DHT22;23119;51.842;-2.230;2023-05-21T09:35:32;23.40;74.00
37222;DHT22;23119;51.842;-2.230;2023-05-21T09:38:07;23.30;74.40
37222;DHT22;23119;51.842;-2.230;2023-05-21T09:40:42;22.90;75.20
37222;DHT22;23119;51.842;-2.230;2023-05-21T09:43:08;22.80;75.20
37222;DHT22;23119;51.842;-2.230;2023-05-21T09:45:53;22.80;75.20
37222;DHT22;23119;51.842;-2.230;2023-05-21T09:48:42;22.80;75.50
37222;DHT22;23119;51.842;-2.230;2023-05-21T09:53:51;22.50;76.70
37222;DHT22;23119;51.842;-2.230;2023-05-21T09:56:26;22.60;76.10
37222;DHT22;23119;51.842;-2.230;2023-05-21T09:58:58;22.30;76.40
37222;DHT22;23119;51.842;-2.230;2023-05-21T10:01:26;22.30;76.90
37222;DHT22;23119;51.842;-2.230;2023-05-21T10:03:56;22.40;76.70
37222;DHT22;23119;51.842;-2.230;2023-05-21T10:06:27;22.50;76.50
37222;DHT22;23119;51.842;-2.230;2023-05-21T10:09:04;22.40;75.90
37222;DHT22;23119;51.842;-2.230;2023-05-21T10:11:32;22.20;77.10
37222;DHT22;23119;51.842;-2.230;2023-05-21T10:14:06;22.50;77.00
37222;DHT22;23119;51.842;-2.230;2023-05-21T10:16:36;22.50;77.30
37222;DHT22;23119;51.842;-2.230;2023-05-21T10:19:02;22.40;77.30
37222;DHT22;23119;51.842;-2.230;2023-05-21T10:21:29;22.50;77.00
37222;DHT22;23119;51.842;-2.230;2023-05-21T10:24:03;22.80;76.70
37222;DHT22;23119;51.842;-2.230;2023-05-21T10:26:29;23.10;76.30
37222;DHT22;23119;51.842;-2.230;2023-05-21T10:28:58;23.20;75.50
37222;DHT22;23119;51.842;-2.230;2023-05-21T10:31:28;23.30;75.50
37222;DHT22;23119;51.842;-2.230;2023-05-21T10:33:55;23.40;74.10
37222;DHT22;23119;51.842;-2.230;2023-05-21T10:36:21;23.20;74.80
37222;DHT22;23119;51.842;-2.230;2023-05-21T10:38:48;23.40;75.80
37222;DHT22;23119;51.842;-2.230;2023-05-21T10:41:15;23.40;74.80
37222;DHT22;23119;51.842;-2.230;2023-05-21T10:44:04;23.60;74.40
37222;DHT22;23119;51.842;-2.230;2023-05-21T10:49:44;23.20;74.60
37222;DHT22;23119;51.842;-2.230;2023-05-21T10:52:49;23.20;74.20
37222;DHT22;23119;51.842;-2.230;2023-05-21T10:55:33;23.40;74.50
37222;DHT22;23119;51.842;-2.230;2023-05-21T11:00:58;23.60;74.90
37222;DHT22;23119;51.842;-2.230;2023-05-21T11:03:26;23.50;74.70
37222;DHT22;23119;51.842;-2.230;2023-05-21T11:05:55;23.40;74.80
37222;DHT22;23119;51.842;-2.230;2023-05-21T11:08:29;23.30;74.40
37222;DHT22;23119;51.842;-2.230;2023-05-21T11:10:59;23.10;73.80
37222;DHT22;23119;51.842;-2.230;2023-05-21T11:13:28;23.30;74.60
37222;DHT22;23119;51.842;-2.230;2023-05-21T11:21:20;23.80;73.60
37222;DHT22;23119;51.842;-2.230;2023-05-21T11:24:00;23.80;73.10
37222;DHT22;23119;51.842;-2.230;2023-05-21T11:29:13;23.90;73.20
37222;DHT22;23119;51.842;-2.230;2023-05-21T11:31:44;23.80;73.40
37222;DHT22;23119;51.842;-2.230;2023-05-21T11:36:51;23.60;73.60
37222;DHT22;23119;51.842;-2.230;2023-05-21T11:39:41;23.50;73.90
37222;DHT22;23119;51.842;-2.230;2023-05-21T11:42:07;23.40;73.10
37222;DHT22;23119;51.842;-2.230;2023-05-21T11:44:47;23.60;74.00
37222;DHT22;23119;51.842;-2.230;2023-05-21T11:47:17;23.90;74.30
37222;DHT22;23119;51.842;-2.230;2023-05-21T11:49:43;24.10;73.40
37222;DHT22;23119;51.842;-2.230;2023-05-21T11:52:15;24.10;73.00
37222;DHT22;23119;51.842;-2.230;2023-05-21T11:54:45;23.90;72.90
37222;DHT22;23119;51.842;-2.230;2023-05-21T11:57:13;24.10;73.20
37222;DHT22;23119;51.842;-2.230;2023-05-21T11:59:41;24.30;73.30
37222;DHT22;23119;51.842;-2.230;2023-05-21T12:02:14;24.60;73.40
37222;DHT22;23119;51.842;-2.230;2023-05-21T12:04:47;24.80;73.20
37222;DHT22;23119;51.842;-2.230;2023-05-21T12:07:17;24.90;73.40
37222;DHT22;23119;51.842;-2.230;2023-05-21T12:09:50;24.80;72.20
37222;DHT22;23119;51.842;-2.230;2023-05-21T12:12:18;24.80;71.70
37222;DHT22;23119;51.842;-2.230;2023-05-21T12:14:50;24.70;72.00
37222;DHT22;23119;51.842;-2.230;2023-05-21T12:17:18;24.70;71.90
37222;DHT22;23119;51.842;-2.230;2023-05-21T12:19:48;24.80;72.30
37222;DHT22;23119;51.842;-2.230;2023-05-21T12:22:17;24.70;71.50
37222;DHT22;23119;51.842;-2.230;2023-05-21T12:24:44;24.20;71.00
37222;DHT22;23119;51.842;-2.230;2023-05-21T12:27:11;24.20;71.20
37222;DHT22;23119;51.842;-2.230;2023-05-21T12:29:43;24.20;71.10
37222;DHT22;23119;51.842;-2.230;2023-05-21T12:32:13;24.30;70.70
37222;DHT22;23119;51.842;-2.230;2023-05-21T12:34:46;24.00;70.90
37222;DHT22;23119;51.842;-2.230;2023-05-21T12:39:46;23.80;72.60
37222;DHT22;23119;51.842;-2.230;2023-05-21T12:42:15;23.90;72.30
37222;DHT22;23119;51.842;-2.230;2023-05-21T12:44:45;23.80;71.20
37222;DHT22;23119;51.842;-2.230;2023-05-21T12:47:12;23.70;71.00
37222;DHT22;23119;51.842;-2.230;2023-05-21T12:49:42;23.60;72.70
37222;DHT22;23119;51.842;-2.230;2023-05-21T12:52:17;23.70;72.70
37222;DHT22;23119;51.842;-2.230;2023-05-21T12:54:49;23.90;72.20
37222;DHT22;23119;51.842;-2.230;2023-05-21T12:57:20;23.70;72.20
37222;DHT22;23119;51.842;-2.230;2023-05-21T12:59:57;23.80;72.40
37222;DHT22;23119;51.842;-2.230;2023-05-21T13:02:24;23.90;72.60
37222;DHT22;23119;51.842;-2.230;2023-05-21T13:04:58;24.10;73.20
37222;DHT22;23119;51.842;-2.230;2023-05-21T13:07:25;23.80;72.70
37222;DHT22;23119;51.842;-2.230;2023-05-21T13:09:54;23.80;72.90
37222;DHT22;23119;51.842;-2.230;2023-05-21T13:12:32;23.80;72.60
37222;DHT22;23119;51.842;-2.230;2023-05-21T13:15:00;23.90;72.50
37222;DHT22;23119;51.842;-2.230;2023-05-21T13:17:28;24.00;73.00
37222;DHT22;23119;51.842;-2.230;2023-05-21T13:20:12;24.30;73.30
37222;DHT22;23119;51.842;-2.230;2023-05-21T13:22:43;24.20;72.10
37222;DHT22;23119;51.842;-2.230;2023-05-21T13:25:14;23.90;72.40
37222;DHT22;23119;51.842;-2.230;2023-05-21T13:27:41;23.90;73.40
37222;DHT22;23119;51.842;-2.230;2023-05-21T13:30:09;23.80;73.60
37222;DHT22;23119;51.842;-2.230;2023-05-21T13:32:36;23.70;74.10
37222;DHT22;23119;51.842;-2.230;2023-05-21T13:35:05;23.80;73.20
37222;DHT22;23119;51.842;-2.230;2023-05-21T13:37:33;23.90;73.30
37222;DHT22;23119;51.842;-2.230;2023-05-21T13:40:06;24.10;73.00
37222;DHT22;23119;51.842;-2.230;2023-05-21T13:42:33;24.30;72.80
37222;DHT22;23119;51.842;-2.230;2023-05-21T13:45:02;24.40;72.70
37222;DHT22;23119;51.842;-2.230;2023-05-21T13:47:27;24.40;72.60
37222;DHT22;23119;51.842;-2.230;2023-05-21T13:49:55;24.10;71.80
37222;DHT22;23119;51.842;-2.230;2023-05-21T13:52:27;23.70;72.70
37222;DHT22;23119;51.842;-2.230;2023-05-21T13:55:01;23.50;73.90
37222;DHT22;23119;51.842;-2.230;2023-05-21T13:57:29;23.60;73.50
37222;DHT22;23119;51.842;-2.230;2023-05-21T13:59:58;23.80;73.00
37222;DHT22;23119;51.842;-2.230;2023-05-21T14:02:24;23.50;73.10
37222;DHT22;23119;51.842;-2.230;2023-05-21T14:04:49;23.20;73.60
37222;DHT22;23119;51.842;-2.230;2023-05-21T14:07:18;23.50;74.50
37222;DHT22;23119;51.842;-2.230;2023-05-21T14:09:45;23.30;73.30
37222;DHT22;23119;51.842;-2.230;2023-05-21T14:12:12;23.40;73.70
37222;DHT22;23119;51.842;-2.230;2023-05-21T14:14:40;23.40;73.40
37222;DHT22;23119;51.842;-2.230;2023-05-21T14:17:06;23.60;73.50
37222;DHT22;23119;51.842;-2.230;2023-05-21T14:19:32;23.40;73.60
37222;DHT22;23119;51.842;-2.230;2023-05-21T14:21:57;23.30;74.50
37222;DHT22;23119;51.842;-2.230;2023-05-21T14:24:24;23.40;74.50
37222;DHT22;23119;51.842;-2.230;2023-05-21T14:26:50;23.40;75.20
37222;DHT22;23119;51.842;-2.230;2023-05-21T14:29:17;23.40;74.70
37222;DHT22;23119;51.842;-2.230;2023-05-21T14:31:43;23.40;74.60
37222;DHT22;23119;51.842;-2.230;2023-05-21T14:34:10;23.50;74.60
37222;DHT22;23119;51.842;-2.230;2023-05-21T14:36:36;23.70;74.60
37222;DHT22;23119;51.842;-2.230;2023-05-21T14:39:02;23.60;72.80
37222;DHT22;23119;51.842;-2.230;2023-05-21T14:41:48;23.40;73.50
37222;DHT22;23119;51.842;-2.230;2023-05-21T14:44:17;23.30;74.30
37222;DHT22;23119;51.842;-2.230;2023-05-21T14:46:42;23.40;74.70
37222;DHT22;23119;51.842;-2.230;2023-05-21T14:49:08;23.40;74.70
37222;DHT22;23119;51.842;-2.230;2023-05-21T14:51:36;23.40;75.30
37222;DHT22;23119;51.842;-2.230;2023-05-21T14:54:01;23.40;75.20
37222;DHT22;23119;51.842;-2.230;2023-05-21T14:56:29;23.30;75.30
37222;DHT22;23119;51.842;-2.230;2023-05-21T14:58:55;23.40;75.70
37222;DHT22;23119;51.842;-2.230;2023-05-21T15:01:20;23.20;75.90
37222;DHT22;23119;51.842;-2.230;2023-05-21T15:03:46;23.00;74.70
37222;DHT22;23119;51.842;-2.230;2023-05-21T15:06:15;23.00;75.60
37222;DHT22;23119;51.842;-2.230;2023-05-21T15:08:44;23.10;75.90
37222;DHT22;23119;51.842;-2.230;2023-05-21T15:11:09;23.20;75.50
37222;DHT22;23119;51.842;-2.230;2023-05-21T15:13:36;23.00;75.70
37222;DHT22;23119;51.842;-2.230;2023-05-21T15:16:02;22.90;76.00
37222;DHT22;23119;51.842;-2.230;2023-05-21T15:18:33;22.70;76.20
37222;DHT22;23119;51.842;-2.230;2023-05-21T15:20:58;22.60;76.50
37222;DHT22;23119;51.842;-2.230;2023-05-21T15:23:27;22.60;76.60
37222;DHT22;23119;51.842;-2.230;2023-05-21T15:25:53;22.50;76.40
37222;DHT22;23119;51.842;-2.230;2023-05-21T15:28:20;22.40;75.90
37222;DHT22;23119;51.842;-2.230;2023-05-21T15:30:48;22.40;76.70
37222;DHT22;23119;51.842;-2.230;2023-05-21T15:33:14;22.40;76.90
37222;DHT22;23119;51.842;-2.230;2023-05-21T15:35:40;22.40;77.30
37222;DHT22;23119;51.842;-2.230;2023-05-21T15:38:05;22.50;77.00
37222;DHT22;23119;51.842;-2.230;2023-05-21T15:40:31;22.60;76.70
37222;DHT22;23119;51.842;-2.230;2023-05-21T15:43:04;22.50;76.50
37222;DHT22;23119;51.842;-2.230;2023-05-21T15:45:33;22.10;77.10
37222;DHT22;23119;51.842;-2.230;2023-05-21T15:47:59;21.90;77.30
37222;DHT22;23119;51.842;-2.230;2023-05-21T15:50:24;22.00;78.00
37222;DHT22;23119;51.842;-2.230;2023-05-21T15:52:53;21.90;78.00
37222;DHT22;23119;51.842;-2.230;2023-05-21T15:55:19;22.00;77.90